sensor_id;sensor_type;location;lat;lon;timestamp;P1;durP1;ratioP1;P2;durP2;ratioP2
6667;SDS011;3370;47.712;9.082;2023-12-14T00:02:08;1.10;;;1.10;;
6667;SDS011;3370;47.712;9.082;2023-12-14T00:04:33;3.97;;;0.90;;
6667;SDS011;3370;47.712;9.082;2023-12-14T00:06:59;0.90;;;0.90;;
6667;SDS011;3370;47.712;9.082;2023-12-14T00:09:25;0.87;;;0.87;;
6667;SDS011;3370;47.712;9.082;2023-12-14T00:11:51;1.00;;;1.00;;
6667;SDS011;3370;47.712;9.082;2023-12-14T00:14:17;1.50;;;0.80;;
6667;SDS011;3370;47.712;9.082;2023-12-14T00:16:42;0.93;;;0.93;;
6667;SDS011;3370;47.712;9.082;2023-12-14T00:19:08;1.30;;;1.07;;
6667;SDS011;3370;47.712;9.082;2023-12-14T00:21:34;0.90;;;0.90;;
6667;SDS011;3370;47.712;9.082;2023-12-14T00:24:00;1.03;;;0.90;;
6667;SDS011;3370;47.712;9.082;2023-12-14T00:26:25;1.07;;;1.07;;
6667;SDS011;3370;47.712;9.082;2023-12-14T00:28:51;1.10;;;1.10;;
6667;SDS011;3370;47.712;9.082;2023-12-14T00:31:17;0.70;;;0.70;;
6667;SDS011;3370;47.712;9.082;2023-12-14T00:33:43;1.20;;;1.10;;
6667;SDS011;3370;47.712;9.082;2023-12-14T00:36:09;1.10;;;0.93;;
6667;SDS011;3370;47.712;9.082;2023-12-14T00:38:42;1.10;;;1.10;;
6667;SDS011;3370;47.712;9.082;2023-12-14T00:41:07;2.93;;;1.90;;
6667;SDS011;3370;47.712;9.082;2023-12-14T00:43:33;4.37;;;2.37;;
6667;SDS011;3370;47.712;9.082;2023-12-14T00:45:59;6.67;;;2.77;;
6667;SDS011;3370;47.712;9.082;2023-12-14T00:48:25;3.00;;;2.00;;
6667;SDS011;3370;47.712;9.082;2023-12-14T00:50:50;2.40;;;1.50;;
6667;SDS011;3370;47.712;9.082;2023-12-14T00:53:16;1.80;;;1.70;;
6667;SDS011;3370;47.712;9.082;2023-12-14T00:55:42;1.90;;;1.77;;
6667;SDS011;3370;47.712;9.082;2023-12-14T00:58:07;2.70;;;1.50;;
6667;SDS011;3370;47.712;9.082;2023-12-14T01:00:33;1.40;;;1.30;;
6667;SDS011;3370;47.712;9.082;2023-12-14T01:02:59;1.87;;;1.50;;
6667;SDS011;3370;47.712;9.082;2023-12-14T01:05:25;1.50;;;1.40;;
6667;SDS011;3370;47.712;9.082;2023-12-14T01:07:51;1.50;;;1.40;;
6667;SDS011;3370;47.712;9.082;2023-12-14T01:10:16;1.30;;;1.23;;
6667;SDS011;3370;47.712;9.082;2023-12-14T01:12:42;1.50;;;1.40;;
6667;SDS011;3370;47.712;9.082;2023-12-14T01:15:08;1.30;;;1.30;;
6667;SDS011;3370;47.712;9.082;2023-12-14T01:17:34;1.07;;;1.07;;
6667;SDS011;3370;47.712;9.082;2023-12-14T01:20:03;1.80;;;1.40;;
6667;SDS011;3370;47.712;9.082;2023-12-14T01:22:31;3.37;;;1.50;;
6667;SDS011;3370;47.712;9.082;2023-12-14T01:24:58;1.53;;;1.43;;
6667;SDS011;3370;47.712;9.082;2023-12-14T01:27:24;1.23;;;1.00;;
6667;SDS011;3370;47.712;9.082;2023-12-14T01:29:50;1.13;;;1.07;;
6667;SDS011;3370;47.712;9.082;2023-12-14T01:32:16;1.30;;;1.20;;
6667;SDS011;3370;47.712;9.082;2023-12-14T01:34:42;2.60;;;1.80;;
6667;SDS011;3370;47.712;9.082;2023-12-14T01:37:07;2.10;;;1.90;;
6667;SDS011;3370;47.712;9.082;2023-12-14T01:39:33;2.67;;;1.80;;
6667;SDS011;3370;47.712;9.082;2023-12-14T01:41:59;1.97;;;1.83;;
6667;SDS011;3370;47.712;9.082;2023-12-14T01:44:24;1.77;;;1.67;;
6667;SDS011;3370;47.712;9.082;2023-12-14T01:46:50;2.10;;;1.53;;
6667;SDS011;3370;47.712;9.082;2023-12-14T01:49:16;2.30;;;1.40;;
6667;SDS011;3370;47.712;9.082;2023-12-14T01:51:42;2.00;;;1.23;;
6667;SDS011;3370;47.712;9.082;2023-12-14T01:54:07;2.70;;;0.90;;
6667;SDS011;3370;47.712;9.082;2023-12-14T01:56:33;1.30;;;1.20;;
6667;SDS011;3370;47.712;9.082;2023-12-14T01:58:59;1.37;;;1.20;;
6667;SDS011;3370;47.712;9.082;2023-12-14T02:04:17;0.70;;;0.70;;
6667;SDS011;3370;47.712;9.082;2023-12-14T02:06:43;1.20;;;1.10;;
6667;SDS011;3370;47.712;9.082;2023-12-14T02:09:09;2.10;;;1.10;;
6667;SDS011;3370;47.712;9.082;2023-12-14T02:11:35;3.43;;;1.43;;
6667;SDS011;3370;47.712;9.082;2023-12-14T02:14:11;1.60;;;1.50;;
6667;SDS011;3370;47.712;9.082;2023-12-14T02:16:37;1.50;;;1.40;;
6667;SDS011;3370;47.712;9.082;2023-12-14T02:19:04;1.67;;;1.50;;
6667;SDS011;3370;47.712;9.082;2023-12-14T02:21:30;1.37;;;1.33;;
6667;SDS011;3370;47.712;9.082;2023-12-14T02:23:56;1.40;;;1.40;;
6667;SDS011;3370;47.712;9.082;2023-12-14T02:26:22;1.60;;;1.50;;
6667;SDS011;3370;47.712;9.082;2023-12-14T02:28:47;1.40;;;1.30;;
6667;SDS011;3370;47.712;9.082;2023-12-14T02:31:13;4.83;;;1.50;;
6667;SDS011;3370;47.712;9.082;2023-12-14T02:33:40;1.40;;;1.30;;
6667;SDS011;3370;47.712;9.082;2023-12-14T02:36:06;1.43;;;1.43;;
6667;SDS011;3370;47.712;9.082;2023-12-14T02:38:31;1.50;;;1.40;;
6667;SDS011;3370;47.712;9.082;2023-12-14T02:40:58;1.70;;;1.60;;
6667;SDS011;3370;47.712;9.082;2023-12-14T02:43:24;1.30;;;1.20;;
6667;SDS011;3370;47.712;9.082;2023-12-14T02:45:49;1.40;;;1.20;;
6667;SDS011;3370;47.712;9.082;2023-12-14T02:48:15;1.27;;;1.20;;
6667;SDS011;3370;47.712;9.082;2023-12-14T02:50:41;1.70;;;1.70;;
6667;SDS011;3370;47.712;9.082;2023-12-14T02:53:07;1.27;;;1.27;;
6667;SDS011;3370;47.712;9.082;2023-12-14T02:55:33;1.60;;;1.53;;
6667;SDS011;3370;47.712;9.082;2023-12-14T02:57:58;1.00;;;1.00;;
6667;SDS011;3370;47.712;9.082;2023-12-14T03:00:24;1.50;;;1.40;;
6667;SDS011;3370;47.712;9.082;2023-12-14T03:02:50;1.10;;;1.10;;
6667;SDS011;3370;47.712;9.082;2023-12-14T03:05:15;1.90;;;1.30;;
6667;SDS011;3370;47.712;9.082;2023-12-14T03:07:41;1.47;;;1.20;;
6667;SDS011;3370;47.712;9.082;2023-12-14T03:10:07;1.50;;;1.40;;
6667;SDS011;3370;47.712;9.082;2023-12-14T03:12:33;1.10;;;1.00;;
6667;SDS011;3370;47.712;9.082;2023-12-14T03:14:59;1.33;;;1.33;;
6667;SDS011;3370;47.712;9.082;2023-12-14T03:17:25;1.27;;;1.27;;
6667;SDS011;3370;47.712;9.082;2023-12-14T03:19:51;1.10;;;1.10;;
6667;SDS011;3370;47.712;9.082;2023-12-14T03:22:16;1.60;;;1.50;;
6667;SDS011;3370;47.712;9.082;2023-12-14T03:24:42;1.33;;;1.23;;
6667;SDS011;3370;47.712;9.082;2023-12-14T03:27:08;1.90;;;1.43;;
6667;SDS011;3370;47.712;9.082;2023-12-14T03:29:34;1.40;;;1.37;;
6667;SDS011;3370;47.712;9.082;2023-12-14T03:32:00;2.00;;;1.23;;
6667;SDS011;3370;47.712;9.082;2023-12-14T03:34:26;1.03;;;1.03;;
6667;SDS011;3370;47.712;9.082;2023-12-14T03:36:52;1.40;;;1.40;;
6667;SDS011;3370;47.712;9.082;2023-12-14T03:39:17;1.53;;;1.43;;
6667;SDS011;3370;47.712;9.082;2023-12-14T03:41:43;1.47;;;1.37;;
6667;SDS011;3370;47.712;9.082;2023-12-14T03:44:09;1.13;;;1.13;;
6667;SDS011;3370;47.712;9.082;2023-12-14T03:46:36;1.40;;;1.40;;
6667;SDS011;3370;47.712;9.082;2023-12-14T03:49:02;1.83;;;1.73;;
6667;SDS011;3370;47.712;9.082;2023-12-14T03:51:28;1.43;;;1.40;;
6667;SDS011;3370;47.712;9.082;2023-12-14T03:53:55;1.87;;;1.27;;
6667;SDS011;3370;47.712;9.082;2023-12-14T03:56:21;1.60;;;1.50;;
6667;SDS011;3370;47.712;9.082;2023-12-14T03:58:47;1.27;;;1.20;;
6667;SDS011;3370;47.712;9.082;2023-12-14T04:01:19;1.60;;;1.53;;
6667;SDS011;3370;47.712;9.082;2023-12-14T04:03:46;1.30;;;1.30;;
6667;SDS011;3370;47.712;9.082;2023-12-14T04:06:12;1.30;;;1.30;;
6667;SDS011;3370;47.712;9.082;2023-12-14T04:08:38;2.40;;;1.40;;
6667;SDS011;3370;47.712;9.082;2023-12-14T04:11:05;1.60;;;1.60;;
6667;SDS011;3370;47.712;9.082;2023-12-14T04:13:31;1.50;;;1.50;;
6667;SDS011;3370;47.712;9.082;2023-12-14T04:15:58;2.10;;;2.00;;
6667;SDS011;3370;47.712;9.082;2023-12-14T04:18:24;1.40;;;1.40;;
6667;SDS011;3370;47.712;9.082;2023-12-14T04:20:49;1.63;;;1.63;;
6667;SDS011;3370;47.712;9.082;2023-12-14T04:23:15;1.40;;;1.40;;
6667;SDS011;3370;47.712;9.082;2023-12-14T04:25:41;1.77;;;1.67;;
6667;SDS011;3370;47.712;9.082;2023-12-14T04:28:07;2.87;;;2.17;;
6667;SDS011;3370;47.712;9.082;2023-12-14T04:30:33;2.07;;;1.93;;
6667;SDS011;3370;47.712;9.082;2023-12-14T04:32:58;2.13;;;2.03;;
6667;SDS011;3370;47.712;9.082;2023-12-14T04:35:24;1.53;;;1.43;;
6667;SDS011;3370;47.712;9.082;2023-12-14T04:37:50;1.47;;;1.47;;
6667;SDS011;3370;47.712;9.082;2023-12-14T04:40:16;1.67;;;1.67;;
6667;SDS011;3370;47.712;9.082;2023-12-14T04:42:42;1.67;;;1.60;;
6667;SDS011;3370;47.712;9.082;2023-12-14T04:45:07;1.80;;;1.70;;
6667;SDS011;3370;47.712;9.082;2023-12-14T04:47:38;1.87;;;1.77;;
6667;SDS011;3370;47.712;9.082;2023-12-14T04:50:03;2.53;;;1.90;;
6667;SDS011;3370;47.712;9.082;2023-12-14T04:52:30;2.03;;;1.93;;
6667;SDS011;3370;47.712;9.082;2023-12-14T04:54:56;2.10;;;2.00;;
6667;SDS011;3370;47.712;9.082;2023-12-14T04:57:21;2.17;;;2.07;;
6667;SDS011;3370;47.712;9.082;2023-12-14T04:59:47;2.17;;;1.97;;
6667;SDS011;3370;47.712;9.082;2023-12-14T05:02:13;2.20;;;2.10;;
6667;SDS011;3370;47.712;9.082;2023-12-14T05:04:39;1.97;;;1.83;;
6667;SDS011;3370;47.712;9.082;2023-12-14T05:07:05;2.33;;;2.23;;
6667;SDS011;3370;47.712;9.082;2023-12-14T05:09:30;2.23;;;2.13;;
6667;SDS011;3370;47.712;9.082;2023-12-14T05:11:56;2.47;;;2.27;;
6667;SDS011;3370;47.712;9.082;2023-12-14T05:14:22;2.10;;;2.10;;
6667;SDS011;3370;47.712;9.082;2023-12-14T05:16:48;2.30;;;2.20;;
6667;SDS011;3370;47.712;9.082;2023-12-14T05:19:14;4.13;;;2.00;;
6667;SDS011;3370;47.712;9.082;2023-12-14T05:21:39;1.77;;;1.77;;
6667;SDS011;3370;47.712;9.082;2023-12-14T05:24:05;3.77;;;2.67;;
6667;SDS011;3370;47.712;9.082;2023-12-14T05:26:31;2.17;;;2.07;;
6667;SDS011;3370;47.712;9.082;2023-12-14T05:28:57;2.50;;;2.30;;
6667;SDS011;3370;47.712;9.082;2023-12-14T05:31:23;1.83;;;1.73;;
6667;SDS011;3370;47.712;9.082;2023-12-14T05:33:48;2.27;;;2.17;;
6667;SDS011;3370;47.712;9.082;2023-12-14T05:36:14;2.90;;;2.70;;
6667;SDS011;3370;47.712;9.082;2023-12-14T05:38:41;3.53;;;2.60;;
6667;SDS011;3370;47.712;9.082;2023-12-14T05:41:07;2.70;;;2.50;;
6667;SDS011;3370;47.712;9.082;2023-12-14T05:43:33;2.37;;;2.27;;
6667;SDS011;3370;47.712;9.082;2023-12-14T05:45:59;2.50;;;2.30;;
6667;SDS011;3370;47.712;9.082;2023-12-14T05:48:25;2.90;;;2.80;;
6667;SDS011;3370;47.712;9.082;2023-12-14T05:50:54;2.30;;;2.20;;
6667;SDS011;3370;47.712;9.082;2023-12-14T05:53:21;2.87;;;2.77;;
6667;SDS011;3370;47.712;9.082;2023-12-14T05:55:47;2.23;;;2.13;;
6667;SDS011;3370;47.712;9.082;2023-12-14T05:58:13;3.37;;;3.07;;
6667;SDS011;3370;47.712;9.082;2023-12-14T06:00:39;5.33;;;3.30;;
6667;SDS011;3370;47.712;9.082;2023-12-14T06:03:05;3.00;;;2.90;;
6667;SDS011;3370;47.712;9.082;2023-12-14T06:05:31;3.40;;;3.10;;
6667;SDS011;3370;47.712;9.082;2023-12-14T06:07:57;2.77;;;2.57;;
6667;SDS011;3370;47.712;9.082;2023-12-14T06:10:22;3.37;;;3.07;;
6667;SDS011;3370;47.712;9.082;2023-12-14T06:12:48;4.93;;;3.50;;
6667;SDS011;3370;47.712;9.082;2023-12-14T06:15:14;4.17;;;3.90;;
6667;SDS011;3370;47.712;9.082;2023-12-14T06:17:40;4.20;;;3.90;;
6667;SDS011;3370;47.712;9.082;2023-12-14T06:20:07;3.90;;;3.70;;
6667;SDS011;3370;47.712;9.082;2023-12-14T06:22:37;4.67;;;4.33;;
6667;SDS011;3370;47.712;9.082;2023-12-14T06:25:03;3.80;;;3.30;;
6667;SDS011;3370;47.712;9.082;2023-12-14T06:27:30;5.63;;;4.30;;
6667;SDS011;3370;47.712;9.082;2023-12-14T06:29:55;7.40;;;4.50;;
6667;SDS011;3370;47.712;9.082;2023-12-14T06:32:21;3.33;;;3.13;;
6667;SDS011;3370;47.712;9.082;2023-12-14T06:34:47;4.00;;;3.57;;
6667;SDS011;3370;47.712;9.082;2023-12-14T06:37:13;5.87;;;5.37;;
6667;SDS011;3370;47.712;9.082;2023-12-14T06:39:42;6.30;;;5.70;;
6667;SDS011;3370;47.712;9.082;2023-12-14T06:42:08;4.20;;;3.90;;
6667;SDS011;3370;47.712;9.082;2023-12-14T06:44:34;4.70;;;4.30;;
6667;SDS011;3370;47.712;9.082;2023-12-14T06:47:00;5.27;;;4.87;;
6667;SDS011;3370;47.712;9.082;2023-12-14T06:49:26;4.17;;;3.77;;
6667;SDS011;3370;47.712;9.082;2023-12-14T06:51:52;4.63;;;4.27;;
6667;SDS011;3370;47.712;9.082;2023-12-14T06:54:17;4.10;;;3.70;;
6667;SDS011;3370;47.712;9.082;2023-12-14T06:56:44;3.50;;;3.20;;
6667;SDS011;3370;47.712;9.082;2023-12-14T06:59:10;3.27;;;2.97;;
6667;SDS011;3370;47.712;9.082;2023-12-14T07:01:35;2.47;;;2.37;;
6667;SDS011;3370;47.712;9.082;2023-12-14T07:04:01;3.00;;;2.80;;
6667;SDS011;3370;47.712;9.082;2023-12-14T07:06:30;2.93;;;2.83;;
6667;SDS011;3370;47.712;9.082;2023-12-14T07:08:55;3.50;;;3.30;;
6667;SDS011;3370;47.712;9.082;2023-12-14T07:11:21;6.70;;;3.30;;
6667;SDS011;3370;47.712;9.082;2023-12-14T07:13:47;3.10;;;2.90;;
6667;SDS011;3370;47.712;9.082;2023-12-14T07:16:13;3.27;;;3.00;;
6667;SDS011;3370;47.712;9.082;2023-12-14T07:18:40;2.60;;;2.50;;
6667;SDS011;3370;47.712;9.082;2023-12-14T07:21:07;3.00;;;2.80;;
6667;SDS011;3370;47.712;9.082;2023-12-14T07:23:34;2.17;;;2.07;;
6667;SDS011;3370;47.712;9.082;2023-12-14T07:26:01;3.50;;;3.20;;
6667;SDS011;3370;47.712;9.082;2023-12-14T07:28:27;3.50;;;3.30;;
6667;SDS011;3370;47.712;9.082;2023-12-14T07:30:53;3.30;;;3.10;;
6667;SDS011;3370;47.712;9.082;2023-12-14T07:33:19;3.20;;;2.90;;
6667;SDS011;3370;47.712;9.082;2023-12-14T07:35:44;3.17;;;3.07;;
6667;SDS011;3370;47.712;9.082;2023-12-14T07:38:10;3.20;;;3.00;;
6667;SDS011;3370;47.712;9.082;2023-12-14T07:40:37;3.60;;;2.90;;
6667;SDS011;3370;47.712;9.082;2023-12-14T07:43:06;2.70;;;2.60;;
6667;SDS011;3370;47.712;9.082;2023-12-14T07:45:32;3.23;;;3.00;;
6667;SDS011;3370;47.712;9.082;2023-12-14T07:47:59;3.93;;;2.90;;
6667;SDS011;3370;47.712;9.082;2023-12-14T07:50:25;3.60;;;3.37;;
6667;SDS011;3370;47.712;9.082;2023-12-14T07:52:51;4.27;;;3.97;;
6667;SDS011;3370;47.712;9.082;2023-12-14T07:55:18;4.93;;;4.53;;
6667;SDS011;3370;47.712;9.082;2023-12-14T07:57:44;7.00;;;5.17;;
6667;SDS011;3370;47.712;9.082;2023-12-14T08:00:09;3.97;;;3.67;;
6667;SDS011;3370;47.712;9.082;2023-12-14T08:02:36;4.57;;;4.07;;
6667;SDS011;3370;47.712;9.082;2023-12-14T08:05:03;5.23;;;4.40;;
6667;SDS011;3370;47.712;9.082;2023-12-14T08:07:30;4.70;;;4.30;;
6667;SDS011;3370;47.712;9.082;2023-12-14T08:09:57;4.57;;;4.00;;
6667;SDS011;3370;47.712;9.082;2023-12-14T08:12:24;4.10;;;3.80;;
6667;SDS011;3370;47.712;9.082;2023-12-14T08:14:50;3.10;;;3.00;;
6667;SDS011;3370;47.712;9.082;2023-12-14T08:17:17;8.13;;;3.70;;
6667;SDS011;3370;47.712;9.082;2023-12-14T08:19:43;4.30;;;3.83;;
6667;SDS011;3370;47.712;9.082;2023-12-14T08:22:09;4.20;;;3.90;;
6667;SDS011;3370;47.712;9.082;2023-12-14T08:24:37;4.53;;;3.03;;
6667;SDS011;3370;47.712;9.082;2023-12-14T08:27:04;4.03;;;3.10;;
6667;SDS011;3370;47.712;9.082;2023-12-14T08:29:30;6.33;;;3.17;;
6667;SDS011;3370;47.712;9.082;2023-12-14T08:31:55;3.73;;;2.87;;
6667;SDS011;3370;47.712;9.082;2023-12-14T08:34:25;4.07;;;3.17;;
6667;SDS011;3370;47.712;9.082;2023-12-14T08:36:52;4.17;;;3.00;;
6667;SDS011;3370;47.712;9.082;2023-12-14T08:39:18;3.93;;;3.63;;
6667;SDS011;3370;47.712;9.082;2023-12-14T08:41:45;2.80;;;2.60;;
6667;SDS011;3370;47.712;9.082;2023-12-14T08:44:12;3.40;;;3.10;;
6667;SDS011;3370;47.712;9.082;2023-12-14T08:46:42;3.27;;;3.07;;
6667;SDS011;3370;47.712;9.082;2023-12-14T08:49:10;3.77;;;3.13;;
6667;SDS011;3370;47.712;9.082;2023-12-14T08:51:37;3.90;;;3.50;;
6667;SDS011;3370;47.712;9.082;2023-12-14T08:54:04;3.90;;;3.60;;
6667;SDS011;3370;47.712;9.082;2023-12-14T08:56:30;4.67;;;3.83;;
6667;SDS011;3370;47.712;9.082;2023-12-14T08:58:56;3.83;;;3.43;;
6667;SDS011;3370;47.712;9.082;2023-12-14T09:01:24;6.87;;;4.60;;
6667;SDS011;3370;47.712;9.082;2023-12-14T09:03:50;5.07;;;4.57;;
6667;SDS011;3370;47.712;9.082;2023-12-14T09:06:16;6.60;;;5.30;;
6667;SDS011;3370;47.712;9.082;2023-12-14T09:08:42;6.60;;;5.20;;
6667;SDS011;3370;47.712;9.082;2023-12-14T09:11:11;5.63;;;4.67;;
6667;SDS011;3370;47.712;9.082;2023-12-14T09:13:37;4.73;;;4.37;;
6667;SDS011;3370;47.712;9.082;2023-12-14T09:16:03;8.90;;;6.40;;
6667;SDS011;3370;47.712;9.082;2023-12-14T09:18:30;22.90;;;13.20;;
6667;SDS011;3370;47.712;9.082;2023-12-14T09:20:56;7.80;;;6.87;;
6667;SDS011;3370;47.712;9.082;2023-12-14T09:23:21;9.87;;;6.00;;
6667;SDS011;3370;47.712;9.082;2023-12-14T09:25:47;10.03;;;6.77;;
6667;SDS011;3370;47.712;9.082;2023-12-14T09:28:13;9.90;;;8.13;;
6667;SDS011;3370;47.712;9.082;2023-12-14T09:30:39;7.40;;;6.27;;
6667;SDS011;3370;47.712;9.082;2023-12-14T09:33:05;9.17;;;6.90;;
6667;SDS011;3370;47.712;9.082;2023-12-14T09:35:33;9.17;;;6.70;;
6667;SDS011;3370;47.712;9.082;2023-12-14T09:38:01;5.83;;;5.10;;
6667;SDS011;3370;47.712;9.082;2023-12-14T09:40:28;6.33;;;5.17;;
6667;SDS011;3370;47.712;9.082;2023-12-14T09:42:54;5.10;;;4.60;;
6667;SDS011;3370;47.712;9.082;2023-12-14T09:45:23;5.80;;;4.43;;
6667;SDS011;3370;47.712;9.082;2023-12-14T09:47:59;4.00;;;3.50;;
6667;SDS011;3370;47.712;9.082;2023-12-14T09:50:25;4.00;;;3.60;;
6667;SDS011;3370;47.712;9.082;2023-12-14T09:52:51;4.10;;;3.80;;
6667;SDS011;3370;47.712;9.082;2023-12-14T09:55:17;5.47;;;4.57;;
6667;SDS011;3370;47.712;9.082;2023-12-14T09:57:43;4.00;;;3.70;;
6667;SDS011;3370;47.712;9.082;2023-12-14T10:00:09;3.80;;;3.40;;
6667;SDS011;3370;47.712;9.082;2023-12-14T10:02:38;3.53;;;3.33;;
6667;SDS011;3370;47.712;9.082;2023-12-14T10:05:05;3.47;;;3.17;;
6667;SDS011;3370;47.712;9.082;2023-12-14T10:07:42;2.90;;;2.70;;
6667;SDS011;3370;47.712;9.082;2023-12-14T10:10:12;3.27;;;3.00;;
6667;SDS011;3370;47.712;9.082;2023-12-14T10:12:52;2.73;;;2.57;;
6667;SDS011;3370;47.712;9.082;2023-12-14T10:15:19;3.23;;;3.03;;
6667;SDS011;3370;47.712;9.082;2023-12-14T10:17:45;3.03;;;2.77;;
6667;SDS011;3370;47.712;9.082;2023-12-14T10:20:21;4.50;;;2.87;;
6667;SDS011;3370;47.712;9.082;2023-12-14T10:22:48;3.10;;;2.90;;
6667;SDS011;3370;47.712;9.082;2023-12-14T10:25:14;3.23;;;3.03;;
6667;SDS011;3370;47.712;9.082;2023-12-14T10:27:42;3.40;;;3.20;;
6667;SDS011;3370;47.712;9.082;2023-12-14T10:30:20;3.10;;;2.90;;
6667;SDS011;3370;47.712;9.082;2023-12-14T10:32:47;6.73;;;3.73;;
6667;SDS011;3370;47.712;9.082;2023-12-14T10:35:14;3.33;;;3.07;;
6667;SDS011;3370;47.712;9.082;2023-12-14T10:37:41;3.30;;;3.07;;
6667;SDS011;3370;47.712;9.082;2023-12-14T10:40:11;3.50;;;3.20;;
6667;SDS011;3370;47.712;9.082;2023-12-14T10:42:41;5.00;;;4.40;;
6667;SDS011;3370;47.712;9.082;2023-12-14T10:45:12;3.17;;;2.87;;
6667;SDS011;3370;47.712;9.082;2023-12-14T10:47:44;3.63;;;2.67;;
6667;SDS011;3370;47.712;9.082;2023-12-14T10:50:13;3.20;;;2.90;;
6667;SDS011;3370;47.712;9.082;2023-12-14T10:52:39;4.27;;;2.70;;
6667;SDS011;3370;47.712;9.082;2023-12-14T10:55:15;3.30;;;3.10;;
6667;SDS011;3370;47.712;9.082;2023-12-14T10:58:03;3.77;;;3.47;;
6667;SDS011;3370;47.712;9.082;2023-12-14T11:00:33;2.90;;;2.70;;
6667;SDS011;3370;47.712;9.082;2023-12-14T11:02:59;3.30;;;3.10;;
6667;SDS011;3370;47.712;9.082;2023-12-14T11:05:26;2.90;;;2.80;;
6667;SDS011;3370;47.712;9.082;2023-12-14T11:07:59;2.80;;;2.60;;
6667;SDS011;3370;47.712;9.082;2023-12-14T11:10:35;2.20;;;2.10;;
6667;SDS011;3370;47.712;9.082;2023-12-14T11:13:11;3.00;;;2.80;;
6667;SDS011;3370;47.712;9.082;2023-12-14T11:15:49;3.00;;;2.80;;
6667;SDS011;3370;47.712;9.082;2023-12-14T11:18:20;2.50;;;2.40;;
6667;SDS011;3370;47.712;9.082;2023-12-14T11:20:48;6.77;;;2.23;;
6667;SDS011;3370;47.712;9.082;2023-12-14T11:23:15;3.53;;;2.40;;
6667;SDS011;3370;47.712;9.082;2023-12-14T11:25:54;2.20;;;2.10;;
6667;SDS011;3370;47.712;9.082;2023-12-14T11:28:28;2.33;;;2.23;;
6667;SDS011;3370;47.712;9.082;2023-12-14T11:31:09;2.70;;;2.50;;
6667;SDS011;3370;47.712;9.082;2023-12-14T11:33:37;2.53;;;2.33;;
6667;SDS011;3370;47.712;9.082;2023-12-14T11:36:02;3.77;;;2.90;;
6667;SDS011;3370;47.712;9.082;2023-12-14T11:38:30;2.40;;;2.30;;
6667;SDS011;3370;47.712;9.082;2023-12-14T11:40:58;3.23;;;2.57;;
6667;SDS011;3370;47.712;9.082;2023-12-14T11:43:24;2.23;;;2.13;;
6667;SDS011;3370;47.712;9.082;2023-12-14T11:45:51;3.43;;;2.90;;
6667;SDS011;3370;47.712;9.082;2023-12-14T11:48:19;2.50;;;2.33;;
6667;SDS011;3370;47.712;9.082;2023-12-14T11:50:45;3.00;;;2.40;;
6667;SDS011;3370;47.712;9.082;2023-12-14T11:53:12;2.50;;;2.23;;
6667;SDS011;3370;47.712;9.082;2023-12-14T11:55:39;2.67;;;2.33;;
6667;SDS011;3370;47.712;9.082;2023-12-14T11:58:07;2.10;;;2.00;;
6667;SDS011;3370;47.712;9.082;2023-12-14T12:00:34;2.07;;;1.97;;
6667;SDS011;3370;47.712;9.082;2023-12-14T12:03:15;2.30;;;2.07;;
6667;SDS011;3370;47.712;9.082;2023-12-14T12:05:48;2.10;;;2.00;;
6667;SDS011;3370;47.712;9.082;2023-12-14T12:08:17;2.27;;;2.17;;
6667;SDS011;3370;47.712;9.082;2023-12-14T12:10:45;1.90;;;1.80;;
6667;SDS011;3370;47.712;9.082;2023-12-14T12:13:15;2.20;;;2.10;;
6667;SDS011;3370;47.712;9.082;2023-12-14T12:15:45;1.93;;;1.83;;
6667;SDS011;3370;47.712;9.082;2023-12-14T12:18:12;1.90;;;1.80;;
6667;SDS011;3370;47.712;9.082;2023-12-14T12:20:42;2.50;;;2.20;;
6667;SDS011;3370;47.712;9.082;2023-12-14T12:23:08;2.10;;;1.90;;
6667;SDS011;3370;47.712;9.082;2023-12-14T12:25:34;2.53;;;2.10;;
6667;SDS011;3370;47.712;9.082;2023-12-14T12:28:01;2.10;;;2.00;;
6667;SDS011;3370;47.712;9.082;2023-12-14T12:30:28;2.27;;;2.17;;
6667;SDS011;3370;47.712;9.082;2023-12-14T12:32:54;2.30;;;2.20;;
6667;SDS011;3370;47.712;9.082;2023-12-14T12:35:21;2.30;;;1.67;;
6667;SDS011;3370;47.712;9.082;2023-12-14T12:37:48;1.40;;;1.40;;
6667;SDS011;3370;47.712;9.082;2023-12-14T12:40:21;1.73;;;1.63;;
6667;SDS011;3370;47.712;9.082;2023-12-14T12:42:50;1.60;;;1.50;;
6667;SDS011;3370;47.712;9.082;2023-12-14T12:45:16;2.40;;;2.30;;
6667;SDS011;3370;47.712;9.082;2023-12-14T12:47:43;1.90;;;1.80;;
6667;SDS011;3370;47.712;9.082;2023-12-14T12:50:09;3.87;;;2.03;;
6667;SDS011;3370;47.712;9.082;2023-12-14T12:52:35;2.53;;;2.33;;
6667;SDS011;3370;47.712;9.082;2023-12-14T12:55:02;2.47;;;2.27;;
6667;SDS011;3370;47.712;9.082;2023-12-14T12:57:32;2.57;;;2.37;;
6667;SDS011;3370;47.712;9.082;2023-12-14T12:59:58;2.70;;;2.50;;
6667;SDS011;3370;47.712;9.082;2023-12-14T13:02:24;2.47;;;2.27;;
6667;SDS011;3370;47.712;9.082;2023-12-14T13:04:49;3.93;;;2.50;;
6667;SDS011;3370;47.712;9.082;2023-12-14T13:07:15;1.97;;;1.87;;
6667;SDS011;3370;47.712;9.082;2023-12-14T13:09:42;2.60;;;2.00;;
6667;SDS011;3370;47.712;9.082;2023-12-14T13:12:08;2.30;;;2.20;;
6667;SDS011;3370;47.712;9.082;2023-12-14T13:14:35;2.30;;;2.20;;
6667;SDS011;3370;47.712;9.082;2023-12-14T13:17:01;2.90;;;2.20;;
6667;SDS011;3370;47.712;9.082;2023-12-14T13:19:27;2.13;;;2.03;;
6667;SDS011;3370;47.712;9.082;2023-12-14T13:21:53;2.97;;;2.40;;
6667;SDS011;3370;47.712;9.082;2023-12-14T13:24:21;3.33;;;2.93;;
6667;SDS011;3370;47.712;9.082;2023-12-14T13:26:48;3.13;;;2.93;;
6667;SDS011;3370;47.712;9.082;2023-12-14T13:29:14;4.30;;;2.67;;
6667;SDS011;3370;47.712;9.082;2023-12-14T13:31:39;2.73;;;2.53;;
6667;SDS011;3370;47.712;9.082;2023-12-14T13:34:05;3.27;;;2.30;;
6667;SDS011;3370;47.712;9.082;2023-12-14T13:36:31;2.70;;;2.60;;
6667;SDS011;3370;47.712;9.082;2023-12-14T13:38:57;2.47;;;2.27;;
6667;SDS011;3370;47.712;9.082;2023-12-14T13:41:23;2.97;;;2.77;;
6667;SDS011;3370;47.712;9.082;2023-12-14T13:43:49;6.80;;;4.13;;
6667;SDS011;3370;47.712;9.082;2023-12-14T13:46:16;4.70;;;4.20;;
6667;SDS011;3370;47.712;9.082;2023-12-14T13:48:43;5.43;;;4.93;;
6667;SDS011;3370;47.712;9.082;2023-12-14T13:51:08;2.80;;;2.60;;
6667;SDS011;3370;47.712;9.082;2023-12-14T13:53:34;3.57;;;3.10;;
6667;SDS011;3370;47.712;9.082;2023-12-14T13:56:00;7.43;;;3.37;;
6667;SDS011;3370;47.712;9.082;2023-12-14T13:58:26;2.80;;;2.60;;
6667;SDS011;3370;47.712;9.082;2023-12-14T14:00:51;3.83;;;2.03;;
6667;SDS011;3370;47.712;9.082;2023-12-14T14:03:17;5.97;;;2.20;;
6667;SDS011;3370;47.712;9.082;2023-12-14T14:05:43;2.47;;;2.37;;
6667;SDS011;3370;47.712;9.082;2023-12-14T14:08:09;8.73;;;2.40;;
6667;SDS011;3370;47.712;9.082;2023-12-14T14:10:36;1.40;;;1.40;;
6667;SDS011;3370;47.712;9.082;2023-12-14T14:13:02;1.30;;;1.20;;
6667;SDS011;3370;47.712;9.082;2023-12-14T14:15:27;2.00;;;1.90;;
6667;SDS011;3370;47.712;9.082;2023-12-14T14:17:53;2.10;;;2.00;;
6667;SDS011;3370;47.712;9.082;2023-12-14T14:20:20;1.33;;;1.23;;
6667;SDS011;3370;47.712;9.082;2023-12-14T14:22:47;2.30;;;1.93;;
6667;SDS011;3370;47.712;9.082;2023-12-14T14:25:13;1.67;;;1.57;;
6667;SDS011;3370;47.712;9.082;2023-12-14T14:27:39;2.50;;;2.30;;
6667;SDS011;3370;47.712;9.082;2023-12-14T14:30:06;3.10;;;2.90;;
6667;SDS011;3370;47.712;9.082;2023-12-14T14:32:32;1.97;;;1.87;;
6667;SDS011;3370;47.712;9.082;2023-12-14T14:35:00;2.50;;;2.40;;
6667;SDS011;3370;47.712;9.082;2023-12-14T14:37:26;3.87;;;3.47;;
6667;SDS011;3370;47.712;9.082;2023-12-14T14:39:52;2.77;;;2.57;;
6667;SDS011;3370;47.712;9.082;2023-12-14T14:42:17;3.33;;;2.80;;
6667;SDS011;3370;47.712;9.082;2023-12-14T14:44:43;2.33;;;2.23;;
6667;SDS011;3370;47.712;9.082;2023-12-14T14:47:09;6.43;;;2.50;;
6667;SDS011;3370;47.712;9.082;2023-12-14T14:49:35;11.83;;;2.67;;
6667;SDS011;3370;47.712;9.082;2023-12-14T14:52:00;3.50;;;3.20;;
6667;SDS011;3370;47.712;9.082;2023-12-14T14:54:26;2.63;;;2.43;;
6667;SDS011;3370;47.712;9.082;2023-12-14T14:56:52;3.80;;;2.93;;
6667;SDS011;3370;47.712;9.082;2023-12-14T14:59:18;3.77;;;3.23;;
6667;SDS011;3370;47.712;9.082;2023-12-14T15:01:44;2.27;;;2.10;;
6667;SDS011;3370;47.712;9.082;2023-12-14T15:04:11;2.03;;;1.80;;
6667;SDS011;3370;47.712;9.082;2023-12-14T15:06:36;1.40;;;1.40;;
6667;SDS011;3370;47.712;9.082;2023-12-14T15:09:03;3.07;;;1.93;;
6667;SDS011;3370;47.712;9.082;2023-12-14T15:11:32;1.30;;;1.30;;
6667;SDS011;3370;47.712;9.082;2023-12-14T15:13:58;1.60;;;1.60;;
6667;SDS011;3370;47.712;9.082;2023-12-14T15:16:36;1.70;;;1.60;;